createdAt,value
2023-03-25T00:00:05.509Z,0.00
2023-03-25T00:00:35.198Z,0.00
2023-03-25T00:01:08.265Z,0.00
2023-03-25T00:01:34.755Z,0.00
2023-03-25T00:01:55.479Z,0.00
2023-03-25T00:02:27.573Z,0.00
2023-03-25T00:02:59.685Z,0.00
2023-03-25T00:03:31.577Z,0.00
2023-03-25T00:04:03.785Z,0.00
2023-03-25T00:04:34.882Z,0.00
2023-03-25T00:05:07.058Z,0.00
2023-03-25T00:05:24.543Z,0.00
2023-03-25T00:05:41.753Z,0.00
2023-03-25T00:06:11.720Z,0.00
2023-03-25T00:06:34.797Z,0.00
2023-03-25T00:06:59.548Z,0.00
2023-03-25T00:07:32.469Z,0.00
2023-03-25T00:08:03.556Z,0.00
2023-03-25T00:08:34.636Z,0.00
2023-03-25T00:09:07.445Z,0.00
2023-03-25T00:09:33.814Z,0.00
2023-03-25T00:09:55.407Z,0.00
2023-03-25T00:10:27.649Z,0.00
2023-03-25T00:11:00.313Z,0.00
2023-03-25T00:11:31.656Z,0.00
2023-03-25T00:12:04.098Z,0.00
2023-03-25T00:12:33.787Z,0.00
2023-03-25T00:13:08.155Z,0.00
2023-03-25T00:13:34.263Z,0.00
2023-03-25T00:13:55.416Z,0.00
2023-03-25T00:14:27.517Z,0.00
2023-03-25T00:14:59.552Z,0.00
2023-03-25T00:15:31.873Z,0.00
2023-03-25T00:16:03.675Z,0.00
2023-03-25T00:16:34.447Z,0.00
2023-03-25T00:16:51.537Z,0.00
2023-03-25T00:17:24.435Z,0.00
2023-03-25T00:17:41.334Z,0.00
2023-03-25T00:18:11.406Z,0.00
2023-03-25T00:18:33.851Z,0.00
2023-03-25T00:18:59.436Z,0.00
2023-03-25T00:19:32.420Z,0.00
2023-03-25T00:20:03.659Z,0.00
2023-03-25T00:20:35.097Z,0.00
2023-03-25T00:20:51.542Z,0.00
2023-03-25T00:21:23.515Z,0.00
2023-03-25T00:21:41.299Z,0.00
2023-03-25T00:22:11.664Z,0.00
2023-03-25T00:22:33.690Z,0.00
2023-03-25T00:22:59.532Z,0.00
2023-03-25T00:23:31.550Z,0.00
2023-03-25T00:24:04.250Z,0.00
2023-03-25T00:24:33.785Z,0.00
2023-03-25T00:24:51.495Z,0.00
2023-03-25T00:25:23.851Z,0.00
2023-03-25T00:25:40.625Z,0.00
2023-03-25T00:26:12.177Z,0.00
2023-03-25T00:26:33.996Z,0.00
2023-03-25T00:26:59.611Z,0.00
2023-03-25T00:27:31.555Z,0.00
2023-03-25T00:28:03.619Z,0.00
2023-03-25T00:28:34.494Z,0.00
2023-03-25T00:29:07.446Z,0.00
2023-03-25T00:29:33.744Z,0.00
2023-03-25T00:29:55.372Z,0.00
2023-03-25T00:30:27.733Z,0.00
2023-03-25T00:31:00.374Z,0.00
2023-03-25T00:31:31.625Z,0.00
2023-03-25T00:32:04.169Z,0.00
2023-03-25T00:32:34.165Z,0.00
2023-03-25T00:32:51.529Z,0.00
2023-03-25T00:33:23.548Z,0.00
2023-03-25T00:33:40.703Z,0.00
2023-03-25T00:34:12.414Z,0.00
2023-03-25T00:34:33.717Z,0.00
2023-03-25T00:34:59.466Z,0.00
2023-03-25T00:35:31.825Z,0.00
2023-03-25T00:36:03.434Z,0.00
2023-03-25T00:36:33.692Z,0.00
2023-03-25T00:36:51.525Z,0.00
2023-03-25T00:37:24.339Z,0.00
2023-03-25T00:37:41.426Z,0.00
2023-03-25T00:38:11.398Z,0.00
2023-03-25T00:38:33.735Z,0.00
2023-03-25T00:38:59.593Z,0.00
2023-03-25T00:39:31.578Z,0.00
2023-03-25T00:40:04.365Z,0.00
2023-03-25T00:40:33.882Z,0.00
2023-03-25T00:40:51.640Z,0.00
2023-03-25T00:41:23.615Z,0.00
2023-03-25T00:41:40.613Z,0.00
2023-03-25T00:42:12.194Z,0.00
2023-03-25T00:42:33.739Z,0.00
2023-03-25T00:42:59.505Z,0.00
2023-03-25T00:43:31.524Z,0.00
2023-03-25T00:44:03.789Z,0.00
2023-03-25T00:44:33.667Z,0.00
2023-03-25T00:44:51.485Z,0.00
2023-03-25T00:45:24.541Z,0.00
2023-03-25T00:45:41.315Z,0.00
2023-03-25T00:46:11.454Z,0.00
2023-03-25T00:46:33.711Z,0.00
2023-03-25T00:46:59.425Z,0.00
2023-03-25T00:47:32.550Z,0.00
2023-03-25T00:48:06.803Z,0.00
2023-03-25T00:48:34.448Z,0.00
2023-03-25T00:49:07.769Z,0.00
2023-03-25T00:49:33.700Z,0.00
2023-03-25T00:49:55.449Z,0.00
2023-03-25T00:50:27.576Z,0.00
2023-03-25T00:51:00.354Z,0.00
2023-03-25T00:51:31.529Z,0.00
2023-03-25T00:52:04.119Z,0.00
2023-03-25T00:52:33.664Z,0.00
2023-03-25T00:52:51.477Z,0.00
2023-03-25T00:53:23.511Z,0.00
2023-03-25T00:53:40.494Z,0.00
2023-03-25T00:54:12.153Z,0.00
2023-03-25T00:54:33.856Z,0.00
2023-03-25T00:54:59.781Z,0.00
2023-03-25T00:55:31.794Z,0.00
2023-03-25T00:56:03.753Z,0.00
2023-03-25T00:56:34.159Z,0.00
2023-03-25T00:56:51.487Z,0.00
2023-03-25T00:57:24.250Z,0.00
2023-03-25T00:57:41.321Z,0.00
2023-03-25T00:58:11.470Z,0.00
2023-03-25T00:58:33.742Z,0.00
2023-03-25T00:58:59.529Z,0.00
2023-03-25T00:59:32.375Z,0.00
2023-03-25T01:00:04.454Z,0.00
2023-03-25T01:00:34.582Z,0.00
2023-03-25T01:01:07.530Z,0.00
2023-03-25T01:01:33.903Z,0.00
2023-03-25T01:01:55.428Z,0.00
2023-03-25T01:02:27.537Z,0.00
2023-03-25T01:03:00.462Z,0.00
2023-03-25T01:03:31.740Z,0.00
2023-03-25T01:04:04.261Z,0.00
2023-03-25T01:04:33.716Z,0.00
2023-03-25T01:04:51.446Z,0.00
2023-03-25T01:05:23.843Z,0.00
2023-03-25T01:05:40.679Z,0.00
2023-03-25T01:06:12.143Z,0.00
2023-03-25T01:06:33.702Z,0.00
2023-03-25T01:06:59.495Z,0.00
2023-03-25T01:07:31.521Z,0.00
2023-03-25T01:08:03.628Z,0.00
2023-03-25T01:08:33.927Z,0.00
2023-03-25T01:08:51.542Z,0.00
2023-03-25T01:09:24.412Z,0.00
2023-03-25T01:09:41.461Z,0.00
2023-03-25T01:10:11.677Z,0.00
2023-03-25T01:10:33.941Z,0.00
2023-03-25T01:10:59.672Z,0.00
2023-03-25T01:11:32.296Z,0.00
2023-03-25T01:12:03.931Z,0.00
2023-03-25T01:12:34.474Z,0.00
2023-03-25T01:13:07.537Z,0.00
2023-03-25T01:13:33.689Z,0.00
2023-03-25T01:13:55.447Z,0.00
2023-03-25T01:14:27.535Z,0.00
2023-03-25T01:15:00.593Z,0.00
2023-03-25T01:15:31.558Z,0.00
2023-03-25T01:16:04.229Z,0.00
2023-03-25T01:16:33.686Z,0.00
2023-03-25T01:16:51.495Z,0.00
2023-03-25T01:17:23.542Z,0.00
2023-03-25T01:17:40.556Z,0.00
2023-03-25T01:18:12.178Z,0.00
2023-03-25T01:18:33.688Z,0.00
2023-03-25T01:18:59.547Z,0.00
2023-03-25T01:19:31.559Z,0.00
2023-03-25T01:20:03.625Z,0.00
2023-03-25T01:20:33.819Z,0.00
2023-03-25T01:20:51.753Z,0.00
2023-03-25T01:21:24.291Z,0.00
2023-03-25T01:21:41.301Z,0.00
2023-03-25T01:22:11.847Z,0.00
2023-03-25T01:22:33.689Z,0.00
2023-03-25T01:22:59.491Z,0.00
2023-03-25T01:23:32.367Z,0.00
2023-03-25T01:24:03.687Z,0.00
2023-03-25T01:24:34.426Z,0.00
2023-03-25T01:25:07.666Z,0.00
2023-03-25T01:25:34.348Z,0.00
2023-03-25T01:25:55.542Z,0.00
2023-03-25T01:26:27.400Z,0.00
2023-03-25T01:27:00.401Z,0.00
2023-03-25T01:27:31.546Z,0.00
2023-03-25T01:28:04.136Z,0.00
2023-03-25T01:28:33.753Z,0.00
2023-03-25T01:28:51.531Z,0.00
2023-03-25T01:29:23.537Z,0.00
2023-03-25T01:29:40.492Z,0.00
2023-03-25T01:30:12.511Z,0.00
2023-03-25T01:30:33.928Z,0.00
2023-03-25T01:30:59.648Z,0.00
2023-03-25T01:31:31.662Z,0.00
2023-03-25T01:32:03.912Z,0.00
2023-03-25T01:32:33.766Z,0.00
2023-03-25T01:32:51.535Z,0.00
2023-03-25T01:33:24.449Z,0.00
2023-03-25T01:33:41.313Z,0.00
2023-03-25T01:34:11.594Z,0.00
2023-03-25T01:34:33.697Z,0.00
2023-03-25T01:34:59.536Z,0.00
2023-03-25T01:35:32.564Z,0.00
2023-03-25T01:36:03.637Z,0.00
2023-03-25T01:36:34.389Z,0.00
2023-03-25T01:37:07.456Z,0.00
2023-03-25T01:37:33.965Z,0.00
2023-03-25T01:37:55.407Z,0.00
2023-03-25T01:38:27.440Z,0.00
2023-03-25T01:38:59.437Z,0.00
2023-03-25T01:39:31.641Z,0.00
2023-03-25T01:40:04.355Z,0.00
2023-03-25T01:40:34.570Z,0.00
2023-03-25T01:41:08.130Z,0.00
2023-03-25T01:41:48.489Z,0.00
2023-03-25T01:41:55.534Z,0.00
2023-03-25T01:42:27.634Z,0.00
2023-03-25T01:42:59.464Z,0.00
2023-03-25T01:43:31.707Z,0.00
2023-03-25T01:44:03.884Z,0.00
2023-03-25T01:44:33.690Z,0.00
2023-03-25T01:44:51.532Z,0.00
2023-03-25T01:45:24.617Z,0.00
2023-03-25T01:45:41.626Z,0.00
2023-03-25T01:46:11.577Z,0.00
2023-03-25T01:46:33.892Z,0.00
2023-03-25T01:46:59.512Z,0.00
2023-03-25T01:47:32.828Z,0.00
2023-03-25T01:48:03.742Z,0.00
2023-03-25T01:48:34.426Z,0.00
2023-03-25T01:49:07.391Z,0.00
2023-03-25T01:49:33.752Z,0.00
2023-03-25T01:49:55.426Z,0.00
2023-03-25T01:50:27.593Z,0.00
2023-03-25T01:51:00.333Z,0.00
2023-03-25T01:51:31.644Z,0.00
2023-03-25T01:52:04.232Z,0.00
2023-03-25T01:52:33.986Z,0.00
2023-03-25T01:52:51.523Z,0.00
2023-03-25T01:53:23.426Z,0.00
2023-03-25T01:53:40.639Z,0.00
2023-03-25T01:54:12.293Z,0.00
2023-03-25T01:54:33.749Z,0.00
2023-03-25T01:54:59.787Z,0.00
2023-03-25T01:55:31.630Z,0.00
2023-03-25T01:56:03.602Z,0.00
2023-03-25T01:56:34.154Z,0.00
2023-03-25T01:56:51.621Z,0.00
2023-03-25T01:57:24.269Z,0.00
2023-03-25T01:57:41.390Z,0.00
2023-03-25T01:58:11.424Z,0.00
2023-03-25T01:58:35.032Z,0.00
2023-03-25T01:58:59.627Z,0.00
2023-03-25T01:59:32.203Z,0.00
2023-03-25T02:00:04.451Z,0.00
2023-03-25T02:00:34.464Z,0.00
2023-03-25T02:01:07.400Z,0.00
2023-03-25T02:01:34.090Z,0.00
2023-03-25T02:01:55.386Z,0.00
2023-03-25T02:02:27.436Z,0.00
2023-03-25T02:03:00.444Z,0.00
2023-03-25T02:03:31.631Z,0.00
2023-03-25T02:04:04.169Z,0.00
2023-03-25T02:04:33.841Z,0.00
2023-03-25T02:04:51.564Z,0.00
2023-03-25T02:05:23.770Z,0.00
2023-03-25T02:05:40.799Z,0.00
2023-03-25T02:06:12.117Z,0.00
2023-03-25T02:06:34.168Z,0.00
2023-03-25T02:06:59.438Z,0.00
2023-03-25T02:07:31.506Z,0.00
2023-03-25T02:08:03.564Z,0.00
2023-03-25T02:08:34.046Z,0.00
2023-03-25T02:08:51.569Z,0.00
2023-03-25T02:09:24.163Z,0.00
2023-03-25T02:09:41.277Z,0.00
2023-03-25T02:10:11.712Z,0.00
2023-03-25T02:10:33.667Z,0.00
2023-03-25T02:10:59.648Z,0.00
2023-03-25T02:11:32.557Z,0.00
2023-03-25T02:12:03.568Z,0.00
2023-03-25T02:12:35.020Z,0.00
2023-03-25T02:12:51.398Z,0.00
2023-03-25T02:13:23.589Z,0.00
2023-03-25T02:13:42.164Z,0.00
2023-03-25T02:14:11.479Z,0.00
2023-03-25T02:14:33.970Z,0.00
2023-03-25T02:14:59.491Z,0.00
2023-03-25T02:15:31.657Z,0.00
2023-03-25T02:16:04.316Z,0.00
2023-03-25T02:16:33.667Z,0.00
2023-03-25T02:16:51.454Z,0.00
2023-03-25T02:17:23.610Z,0.00
2023-03-25T02:17:40.603Z,0.00
2023-03-25T02:18:12.186Z,0.00
2023-03-25T02:18:33.899Z,0.00
2023-03-25T02:19:16.247Z,0.00
2023-03-25T02:19:34.360Z,0.00
2023-03-25T02:20:03.819Z,0.00
2023-03-25T02:20:34.383Z,0.00
2023-03-25T02:20:51.554Z,0.00
2023-03-25T02:21:24.644Z,0.00
2023-03-25T02:21:41.425Z,0.00
2023-03-25T02:22:11.666Z,0.00
2023-03-25T02:22:33.878Z,0.00
2023-03-25T02:22:59.577Z,0.00
2023-03-25T02:23:32.473Z,0.00
2023-03-25T02:24:03.715Z,0.00
2023-03-25T02:24:35.460Z,0.00
2023-03-25T02:25:07.544Z,0.00
2023-03-25T02:25:33.655Z,0.00
2023-03-25T02:25:55.703Z,0.00
2023-03-25T02:26:27.502Z,0.00
2023-03-25T02:27:00.526Z,0.00
2023-03-25T02:27:31.543Z,0.00
2023-03-25T02:28:04.187Z,0.00
2023-03-25T02:28:33.732Z,0.00
2023-03-25T02:28:51.521Z,0.00
2023-03-25T02:29:23.586Z,0.00
2023-03-25T02:29:40.594Z,0.00
2023-03-25T02:30:25.104Z,0.00
2023-03-25T02:30:43.448Z,0.00
2023-03-25T02:31:15.870Z,0.00
2023-03-25T02:31:33.771Z,0.00
2023-03-25T02:32:03.475Z,0.00
2023-03-25T02:32:35.384Z,0.00
2023-03-25T02:33:07.417Z,0.00
2023-03-25T02:33:34.085Z,0.00
2023-03-25T02:33:55.444Z,0.00
2023-03-25T02:34:27.628Z,0.00
2023-03-25T02:35:00.583Z,0.00
2023-03-25T02:35:31.476Z,0.00
2023-03-25T02:36:04.221Z,0.00
2023-03-25T02:36:33.653Z,0.00
2023-03-25T02:36:51.604Z,0.00
2023-03-25T02:37:33.690Z,0.00
2023-03-25T02:37:55.368Z,0.00
2023-03-25T02:38:27.486Z,0.00
2023-03-25T02:38:59.420Z,0.00
2023-03-25T02:39:31.481Z,0.00
2023-03-25T02:40:04.340Z,0.00
2023-03-25T02:40:33.669Z,0.00
2023-03-25T02:40:51.881Z,0.00
2023-03-25T02:41:23.739Z,0.00
2023-03-25T02:41:40.569Z,0.00
2023-03-25T02:42:12.167Z,0.00
2023-03-25T02:42:33.684Z,0.00
2023-03-25T02:42:59.486Z,0.00
2023-03-25T02:43:31.380Z,0.00
2023-03-25T02:44:03.559Z,0.00
2023-03-25T02:44:33.722Z,0.00
2023-03-25T02:44:51.741Z,0.00
2023-03-25T02:45:24.670Z,0.00
2023-03-25T02:45:41.596Z,0.00
2023-03-25T02:46:11.467Z,0.00
2023-03-25T02:46:33.652Z,0.00
2023-03-25T02:46:59.455Z,0.00
2023-03-25T02:47:32.278Z,0.00
2023-03-25T02:48:03.499Z,0.00
2023-03-25T02:48:34.477Z,0.00
2023-03-25T02:48:51.534Z,0.00
2023-03-25T02:49:24.331Z,0.00
2023-03-25T02:49:41.371Z,0.00
2023-03-25T02:50:11.645Z,0.00
2023-03-25T02:50:33.922Z,0.00
2023-03-25T02:50:59.586Z,0.00
2023-03-25T02:51:31.445Z,0.00
2023-03-25T02:52:04.196Z,0.00
2023-03-25T02:52:33.759Z,0.00
2023-03-25T02:52:51.707Z,0.00
2023-03-25T02:53:24.174Z,0.00
2023-03-25T02:53:40.579Z,0.00
2023-03-25T02:54:12.274Z,0.00
2023-03-25T02:54:33.675Z,0.00
2023-03-25T02:54:59.532Z,0.00
2023-03-25T02:55:31.758Z,0.00
2023-03-25T02:56:03.391Z,0.00
2023-03-25T02:56:33.701Z,0.00
2023-03-25T02:56:51.632Z,0.00
2023-03-25T02:57:24.394Z,0.00
2023-03-25T02:57:41.368Z,0.00
2023-03-25T02:58:11.411Z,0.00
2023-03-25T02:58:33.671Z,0.00
2023-03-25T02:58:59.419Z,0.00
2023-03-25T02:59:32.199Z,0.00
2023-03-25T03:00:03.914Z,0.00
2023-03-25T03:00:34.539Z,0.00
2023-03-25T03:01:07.502Z,0.00
2023-03-25T03:01:33.811Z,0.00
2023-03-25T03:01:55.396Z,0.00
2023-03-25T03:02:27.536Z,0.00
2023-03-25T03:03:00.931Z,0.00
2023-03-25T03:03:31.457Z,0.00
2023-03-25T03:04:04.224Z,0.00
2023-03-25T03:04:33.660Z,0.00
2023-03-25T03:04:51.624Z,0.00
2023-03-25T03:05:24.077Z,0.00
2023-03-25T03:05:40.545Z,0.00
2023-03-25T03:06:13.427Z,0.00
2023-03-25T03:06:34.206Z,0.00
2023-03-25T03:06:59.404Z,0.00
2023-03-25T03:07:31.388Z,0.00
2023-03-25T03:08:03.403Z,0.00
2023-03-25T03:08:33.706Z,0.00
2023-03-25T03:08:51.775Z,0.00
2023-03-25T03:09:24.421Z,0.00
2023-03-25T03:09:41.359Z,0.00
2023-03-25T03:10:11.641Z,0.00
2023-03-25T03:10:33.678Z,0.00
2023-03-25T03:10:59.644Z,0.00
2023-03-25T03:11:32.166Z,0.00
2023-03-25T03:12:03.388Z,0.00
2023-03-25T03:12:34.458Z,0.00
2023-03-25T03:12:51.734Z,0.00
2023-03-25T03:13:23.810Z,0.00
2023-03-25T03:13:41.258Z,0.00
2023-03-25T03:14:11.604Z,0.00
2023-03-25T03:14:33.715Z,0.00
2023-03-25T03:14:59.368Z,0.00
2023-03-25T03:15:31.625Z,0.00
2023-03-25T03:16:04.173Z,0.00
2023-03-25T03:16:33.852Z,0.00
2023-03-25T03:16:51.700Z,0.00
2023-03-25T03:17:23.965Z,0.00
2023-03-25T03:17:40.558Z,0.00
2023-03-25T03:18:12.414Z,0.00
2023-03-25T03:18:33.733Z,0.00
2023-03-25T03:18:59.375Z,0.00
2023-03-25T03:19:31.436Z,0.00
2023-03-25T03:20:03.569Z,0.00
2023-03-25T03:20:33.722Z,0.00
2023-03-25T03:20:51.857Z,0.00
2023-03-25T03:21:24.331Z,0.00
2023-03-25T03:21:41.386Z,0.00
2023-03-25T03:22:11.577Z,0.00
2023-03-25T03:22:33.719Z,0.00
2023-03-25T03:22:59.541Z,0.00
2023-03-25T03:23:32.212Z,0.00
2023-03-25T03:24:03.360Z,0.00
2023-03-25T03:24:34.392Z,0.00
2023-03-25T03:25:07.566Z,0.00
2023-03-25T03:25:33.681Z,0.00
2023-03-25T03:25:55.551Z,0.00
2023-03-25T03:26:27.526Z,0.00
2023-03-25T03:27:00.253Z,0.00
2023-03-25T03:27:31.473Z,0.00
2023-03-25T03:28:04.112Z,0.00
2023-03-25T03:28:34.078Z,0.00
2023-03-25T03:28:51.621Z,0.00
2023-03-25T03:29:23.806Z,0.00
2023-03-25T03:29:40.513Z,0.00
2023-03-25T03:30:12.574Z,0.00
2023-03-25T03:30:33.710Z,0.00
2023-03-25T03:30:59.644Z,0.00
2023-03-25T03:31:48.687Z,0.00
2023-03-25T03:32:20.215Z,0.00
2023-03-25T03:32:37.418Z,0.00
2023-03-25T03:33:07.647Z,0.00
2023-03-25T03:33:33.695Z,0.00
2023-03-25T03:33:55.395Z,0.00
2023-03-25T03:34:28.316Z,0.00
2023-03-25T03:34:59.493Z,0.00
2023-03-25T03:35:32.375Z,0.00
2023-03-25T03:36:03.491Z,0.00
2023-03-25T03:36:34.392Z,0.00
2023-03-25T03:37:07.465Z,0.00
2023-03-25T03:37:33.665Z,0.00
2023-03-25T03:37:55.442Z,0.00
2023-03-25T03:38:27.456Z,0.00
2023-03-25T03:38:59.550Z,0.00
2023-03-25T03:39:31.394Z,0.00
2023-03-25T03:40:04.456Z,0.00
2023-03-25T03:40:34.120Z,0.00
2023-03-25T03:40:51.662Z,0.00
2023-03-25T03:41:23.593Z,0.00
2023-03-25T03:41:40.702Z,0.00
2023-03-25T03:42:12.143Z,0.00
2023-03-25T03:42:34.117Z,0.00
2023-03-25T03:42:59.711Z,0.00
2023-03-25T03:43:31.434Z,0.00
2023-03-25T03:44:03.536Z,0.00
2023-03-25T03:44:34.463Z,0.00
2023-03-25T03:44:51.544Z,0.00
2023-03-25T03:45:24.553Z,0.00
2023-03-25T03:45:41.444Z,0.00
2023-03-25T03:46:11.447Z,0.00
2023-03-25T03:46:34.629Z,0.00
2023-03-25T03:46:59.466Z,0.00
2023-03-25T03:47:32.250Z,0.00
2023-03-25T03:48:03.467Z,0.00
2023-03-25T03:48:34.649Z,0.00
2023-03-25T03:49:07.435Z,0.00
2023-03-25T03:49:33.722Z,0.00
2023-03-25T03:49:55.400Z,0.00
2023-03-25T03:50:27.604Z,0.00
2023-03-25T03:51:00.414Z,0.00
2023-03-25T03:51:31.385Z,0.00
2023-03-25T03:52:08.314Z,0.00
2023-03-25T03:52:33.694Z,0.00
2023-03-25T03:52:51.623Z,0.00
2023-03-25T03:53:23.780Z,0.00
2023-03-25T03:53:40.609Z,0.00
2023-03-25T03:54:12.336Z,0.00
2023-03-25T03:54:33.752Z,0.00
2023-03-25T03:54:59.542Z,0.00
2023-03-25T03:55:31.524Z,0.00
2023-03-25T03:56:20.326Z,0.00
2023-03-25T03:56:37.595Z,0.00
2023-03-25T03:57:07.455Z,0.00
2023-03-25T03:57:33.666Z,0.00
2023-03-25T03:57:55.424Z,0.00
2023-03-25T03:58:28.145Z,0.00
2023-03-25T03:58:59.419Z,0.00
2023-03-25T03:59:32.187Z,0.00
2023-03-25T04:00:04.127Z,0.00
2023-03-25T04:00:34.832Z,0.00
2023-03-25T04:00:51.789Z,0.00
2023-03-25T04:01:24.097Z,0.00
2023-03-25T04:01:41.567Z,0.00
2023-03-25T04:02:11.627Z,0.00
2023-03-25T04:02:33.686Z,0.00
2023-03-25T04:02:59.521Z,0.00
2023-03-25T04:03:31.448Z,0.00
2023-03-25T04:04:04.218Z,0.00
2023-03-25T04:04:33.904Z,0.00
2023-03-25T04:04:51.761Z,0.00
2023-03-25T04:05:24.334Z,0.00
2023-03-25T04:05:40.591Z,0.00
2023-03-25T04:06:15.328Z,0.00
2023-03-25T04:06:33.689Z,0.00
2023-03-25T04:06:59.453Z,0.00
2023-03-25T04:07:31.482Z,0.00
2023-03-25T04:08:03.453Z,0.00
2023-03-25T04:08:33.679Z,0.00
2023-03-25T04:08:51.543Z,0.00
2023-03-25T04:09:24.325Z,0.00
2023-03-25T04:09:41.403Z,0.00
2023-03-25T04:10:11.632Z,0.00
2023-03-25T04:10:33.698Z,0.00
2023-03-25T04:10:59.645Z,0.00
2023-03-25T04:11:32.108Z,0.00
2023-03-25T04:12:03.401Z,0.00
2023-03-25T04:12:34.851Z,0.00
2023-03-25T04:12:51.642Z,0.00
2023-03-25T04:13:23.969Z,0.00
2023-03-25T04:13:41.236Z,0.00
2023-03-25T04:14:11.395Z,0.00
2023-03-25T04:14:33.675Z,0.00
2023-03-25T04:14:59.418Z,0.00
2023-03-25T04:15:31.915Z,0.00
2023-03-25T04:16:04.189Z,0.00
2023-03-25T04:16:36.036Z,0.00
2023-03-25T04:16:51.573Z,0.00
2023-03-25T04:17:24.118Z,0.00
2023-03-25T04:17:40.550Z,0.00
2023-03-25T04:18:12.085Z,0.00
2023-03-25T04:18:33.822Z,0.00
2023-03-25T04:18:59.374Z,0.00
2023-03-25T04:19:31.339Z,0.00
2023-03-25T04:20:03.679Z,0.00
2023-03-25T04:20:34.413Z,0.00
2023-03-25T04:21:07.581Z,0.00
2023-03-25T04:21:34.335Z,0.00
2023-03-25T04:21:55.415Z,0.00
2023-03-25T04:22:28.369Z,0.00
2023-03-25T04:22:59.525Z,0.00
2023-03-25T04:23:32.237Z,0.00
2023-03-25T04:24:03.441Z,0.00
2023-03-25T04:24:34.425Z,0.00
2023-03-25T04:25:07.749Z,0.00
2023-03-25T04:25:34.279Z,0.00
2023-03-25T04:25:55.632Z,0.00
2023-03-25T04:26:27.454Z,0.00
2023-03-25T04:27:00.131Z,0.00
2023-03-25T04:27:31.408Z,0.00
2023-03-25T04:28:04.185Z,0.00
2023-03-25T04:28:34.395Z,0.00
2023-03-25T04:28:51.598Z,0.00
2023-03-25T04:29:23.684Z,0.00
2023-03-25T04:29:40.593Z,0.00
2023-03-25T04:30:12.564Z,0.00
2023-03-25T04:30:34.152Z,0.00
2023-03-25T04:30:59.864Z,0.00
2023-03-25T04:31:31.470Z,0.00
2023-03-25T04:32:03.380Z,0.00
2023-03-25T04:32:33.752Z,0.00
2023-03-25T04:32:51.735Z,0.00
2023-03-25T04:33:24.822Z,0.00
2023-03-25T04:33:41.444Z,0.00
2023-03-25T04:34:11.641Z,0.00
2023-03-25T04:34:33.720Z,0.00
2023-03-25T04:34:59.412Z,0.00
2023-03-25T04:35:32.389Z,0.00
2023-03-25T04:36:03.508Z,0.00
2023-03-25T04:36:34.394Z,0.00
2023-03-25T04:37:07.644Z,0.00
2023-03-25T04:37:33.708Z,0.00
2023-03-25T04:37:55.525Z,0.00
2023-03-25T04:38:27.478Z,0.00
2023-03-25T04:39:00.283Z,0.00
2023-03-25T04:39:31.466Z,0.00
2023-03-25T04:40:04.308Z,0.00
2023-03-25T04:40:34.378Z,0.00
2023-03-25T04:41:08.278Z,0.00
2023-03-25T04:41:33.883Z,0.00
2023-03-25T04:41:55.424Z,0.00
2023-03-25T04:42:27.509Z,0.00
2023-03-25T04:42:59.381Z,0.00
2023-03-25T04:43:31.568Z,0.00
2023-03-25T04:44:03.726Z,0.00
2023-03-25T04:44:33.925Z,0.00
2023-03-25T04:44:51.574Z,0.00
2023-03-25T04:45:24.868Z,0.00
2023-03-25T04:45:41.368Z,0.00
2023-03-25T04:46:11.460Z,0.00
2023-03-25T04:46:33.662Z,0.00
2023-03-25T04:46:59.363Z,0.00
2023-03-25T04:47:32.156Z,0.00
2023-03-25T04:48:03.460Z,0.00
2023-03-25T04:48:34.489Z,0.00
2023-03-25T04:49:07.439Z,0.00
2023-03-25T04:49:33.707Z,0.00
2023-03-25T04:49:55.449Z,0.00
2023-03-25T04:50:27.643Z,0.00
2023-03-25T04:51:00.252Z,0.00
2023-03-25T04:51:31.423Z,0.00
2023-03-25T04:52:04.270Z,0.00
2023-03-25T04:52:33.738Z,0.00
2023-03-25T04:52:51.680Z,0.00
2023-03-25T04:53:23.834Z,0.00
2023-03-25T04:53:40.566Z,0.00
2023-03-25T04:54:12.190Z,0.00
2023-03-25T04:54:33.669Z,0.00
2023-03-25T04:54:59.484Z,0.00
2023-03-25T04:55:31.629Z,0.00
2023-03-25T04:56:03.472Z,0.00
2023-03-25T04:56:33.840Z,0.00
2023-03-25T04:56:51.736Z,0.00
2023-03-25T04:57:24.173Z,0.00
2023-03-25T04:57:41.220Z,0.00
2023-03-25T04:58:11.420Z,0.00
2023-03-25T04:58:33.898Z,0.00
2023-03-25T04:58:59.443Z,0.00
2023-03-25T04:59:32.120Z,0.00
2023-03-25T05:00:04.030Z,0.00
2023-03-25T05:00:34.537Z,0.00
2023-03-25T05:00:51.802Z,0.00
2023-03-25T05:01:23.919Z,0.00
2023-03-25T05:01:41.319Z,0.00
2023-03-25T05:02:11.375Z,0.00
2023-03-25T05:02:33.792Z,0.00
2023-03-25T05:02:59.617Z,0.00
2023-03-25T05:03:31.457Z,0.00
2023-03-25T05:04:04.379Z,0.00
2023-03-25T05:04:33.708Z,0.00
2023-03-25T05:04:51.624Z,0.00
2023-03-25T05:05:24.058Z,0.00
2023-03-25T05:05:40.530Z,0.00
2023-03-25T05:06:12.128Z,0.00
2023-03-25T05:06:33.734Z,0.00
2023-03-25T05:06:59.445Z,0.00
2023-03-25T05:07:31.466Z,0.00
2023-03-25T05:08:03.448Z,0.00
2023-03-25T05:08:33.734Z,0.00
2023-03-25T05:08:51.591Z,0.00
2023-03-25T05:09:24.352Z,0.00
2023-03-25T05:09:41.268Z,0.00
2023-03-25T05:10:11.559Z,0.00
2023-03-25T05:10:33.919Z,0.00
2023-03-25T05:10:59.574Z,0.00
2023-03-25T05:11:32.140Z,0.00
2023-03-25T05:12:03.456Z,0.00
2023-03-25T05:12:34.515Z,0.00
2023-03-25T05:12:51.644Z,0.00
2023-03-25T05:13:23.922Z,0.00
2023-03-25T05:13:41.229Z,0.00
2023-03-25T05:14:11.436Z,0.00
2023-03-25T05:14:34.337Z,0.00
2023-03-25T05:14:59.487Z,0.00
2023-03-25T05:15:31.725Z,0.00
2023-03-25T05:16:04.175Z,0.00
2023-03-25T05:16:33.960Z,0.00
2023-03-25T05:16:51.527Z,0.00
2023-03-25T05:17:23.892Z,0.00
2023-03-25T05:17:40.776Z,0.00
2023-03-25T05:18:12.180Z,0.00
2023-03-25T05:18:33.723Z,0.00
2023-03-25T05:18:59.472Z,0.00
2023-03-25T05:19:31.531Z,0.00
2023-03-25T05:20:03.550Z,0.00
2023-03-25T05:20:34.514Z,0.00
2023-03-25T05:20:51.780Z,0.00
2023-03-25T05:21:27.151Z,0.00
2023-03-25T05:21:55.448Z,0.00
2023-03-25T05:22:28.661Z,0.00
2023-03-25T05:22:59.437Z,0.00
2023-03-25T05:23:32.183Z,0.00
2023-03-25T05:24:03.381Z,0.00
2023-03-25T05:24:34.393Z,0.00
2023-03-25T05:25:07.550Z,0.00
2023-03-25T05:25:34.321Z,0.00
2023-03-25T05:25:55.743Z,0.00
2023-03-25T05:26:27.475Z,0.00
2023-03-25T05:27:00.218Z,0.00
2023-03-25T05:27:31.491Z,0.00
2023-03-25T05:28:04.577Z,0.00
2023-03-25T05:28:34.219Z,0.00
2023-03-25T05:28:51.665Z,0.00
2023-03-25T05:29:23.955Z,0.00
2023-03-25T05:29:40.592Z,0.00
2023-03-25T05:30:12.583Z,0.00
2023-03-25T05:30:33.756Z,0.00
2023-03-25T05:30:59.640Z,0.00
2023-03-25T05:31:31.481Z,0.00
2023-03-25T05:32:03.448Z,0.36
2023-03-25T05:32:33.768Z,0.00
2023-03-25T05:32:56.517Z,0.00
2023-03-25T05:33:24.214Z,0.00
2023-03-25T05:33:41.253Z,0.00
2023-03-25T05:34:11.869Z,0.00
2023-03-25T05:34:33.986Z,0.00
2023-03-25T05:34:59.558Z,0.00
2023-03-25T05:35:32.408Z,0.00
2023-03-25T05:36:03.472Z,0.00
2023-03-25T05:36:34.505Z,0.00
2023-03-25T05:36:51.666Z,0.00
2023-03-25T05:37:24.045Z,0.00
2023-03-25T05:37:41.327Z,0.36
2023-03-25T05:38:11.385Z,0.00
2023-03-25T05:38:33.986Z,0.36
2023-03-25T05:38:59.487Z,0.00
2023-03-25T05:39:31.815Z,0.00
2023-03-25T05:40:04.422Z,0.00
2023-03-25T05:40:33.843Z,0.00
2023-03-25T05:40:51.711Z,0.00
2023-03-25T05:41:24.380Z,0.00
2023-03-25T05:41:40.728Z,0.00
2023-03-25T05:42:12.235Z,0.00
2023-03-25T05:42:33.812Z,0.00
2023-03-25T05:42:59.656Z,0.00
2023-03-25T05:43:31.610Z,0.00
2023-03-25T05:44:03.705Z,0.00
2023-03-25T05:44:33.825Z,0.36
2023-03-25T05:44:51.642Z,0.36
2023-03-25T05:45:25.692Z,0.00
2023-03-25T05:45:41.372Z,0.36
2023-03-25T05:46:11.666Z,0.85
2023-03-25T05:46:33.754Z,0.36
2023-03-25T05:46:59.541Z,0.00
2023-03-25T05:47:32.292Z,0.85
2023-03-25T05:48:03.767Z,1.22
2023-03-25T05:48:34.876Z,1.71
2023-03-25T05:48:51.818Z,1.22
2023-03-25T05:49:24.235Z,1.71
2023-03-25T05:49:41.564Z,1.71
2023-03-25T05:50:11.826Z,3.43
2023-03-25T05:50:34.481Z,3.43
2023-03-25T05:50:59.841Z,4.28
2023-03-25T05:51:31.602Z,5.14
2023-03-25T05:52:04.289Z,8.19
2023-03-25T05:52:33.871Z,8.56
2023-03-25T05:52:51.769Z,9.05
2023-03-25T05:53:24.021Z,9.54
2023-03-25T05:53:40.956Z,9.54
2023-03-25T05:54:12.380Z,8.56
2023-03-25T05:54:33.878Z,9.05
2023-03-25T05:54:59.768Z,9.91
2023-03-25T05:55:31.742Z,9.91
2023-03-25T05:56:03.822Z,10.39
2023-03-25T05:56:33.825Z,10.77
2023-03-25T05:56:51.756Z,10.39
2023-03-25T05:57:24.444Z,10.39
2023-03-25T05:57:41.704Z,9.91
2023-03-25T05:58:11.465Z,10.39
2023-03-25T05:58:33.918Z,10.39
2023-03-25T05:58:59.772Z,11.25
2023-03-25T05:59:32.166Z,11.62
2023-03-25T06:00:04.223Z,12.48
2023-03-25T06:00:36.683Z,11.62
2023-03-25T06:01:09.288Z,10.39
2023-03-25T06:01:32.642Z,9.54
2023-03-25T06:01:41.304Z,9.91
2023-03-25T06:02:11.597Z,9.05
2023-03-25T06:02:34.134Z,9.91
2023-03-25T06:02:59.814Z,9.54
2023-03-25T06:03:31.674Z,8.56
2023-03-25T06:04:04.263Z,9.05
2023-03-25T06:04:33.934Z,8.56
2023-03-25T06:04:51.749Z,8.56
2023-03-25T06:05:24.193Z,9.05
2023-03-25T06:05:40.757Z,9.91
2023-03-25T06:06:12.437Z,11.25
2023-03-25T06:06:33.901Z,12.48
2023-03-25T06:06:59.590Z,17.25